createdAt,value
2022-08-28T00:02:03.555Z,65.41
2022-08-28T00:04:31.757Z,67.23
2022-08-28T00:06:59.214Z,66.62
2022-08-28T00:09:26.677Z,66.45
2022-08-28T00:11:54.966Z,67.74
2022-08-28T00:14:23.218Z,66.54
2022-08-28T00:16:51.369Z,68.15
2022-08-28T00:19:20.138Z,68.11
2022-08-28T00:21:47.715Z,67.71
2022-08-28T00:24:15.606Z,70.57
2022-08-28T00:27:03.105Z,68.27
2022-08-28T00:29:30.579Z,68.37
2022-08-28T00:31:59.202Z,67.98
2022-08-28T00:34:33.056Z,70.12
2022-08-28T00:37:02.063Z,66.44
2022-08-28T00:39:29.545Z,66.47
2022-08-28T00:41:57.896Z,66.65
2022-08-28T00:44:27.263Z,67.10
2022-08-28T00:46:56.847Z,66.76
2022-08-28T00:49:32.776Z,68.92
2022-08-28T00:52:12.482Z,67.56
2022-08-28T00:54:56.872Z,68.12
2022-08-28T00:57:40.989Z,67.66
2022-08-28T01:00:11.488Z,67.67
2022-08-28T01:02:39.328Z,69.60
2022-08-28T01:05:09.776Z,69.60
2022-08-28T01:07:38.844Z,69.93
2022-08-28T01:10:15.325Z,69.25
2022-08-28T01:12:42.903Z,69.08
2022-08-28T01:15:14.402Z,69.83
2022-08-28T01:17:46.685Z,69.07
2022-08-28T01:20:17.426Z,68.78
2022-08-28T01:23:15.602Z,67.92
2022-08-28T01:25:43.491Z,68.25
2022-08-28T01:28:13.390Z,66.92
2022-08-28T01:30:44.703Z,66.88
2022-08-28T01:33:14.756Z,66.69
2022-08-28T01:35:45.849Z,65.37
2022-08-28T01:38:14.480Z,65.55
2022-08-28T01:40:49.491Z,64.89
2022-08-28T01:43:23.115Z,65.77
2022-08-28T01:45:54.100Z,65.10
2022-08-28T01:48:24.217Z,64.68
2022-08-28T01:50:52.470Z,64.76
2022-08-28T01:53:24.853Z,65.53
2022-08-28T01:55:53.924Z,66.52
2022-08-28T01:58:22.136Z,68.62
2022-08-28T02:00:53.771Z,69.20
2022-08-28T02:03:23.712Z,69.45
2022-08-28T02:05:51.186Z,69.88
2022-08-28T02:08:18.647Z,69.73
2022-08-28T02:10:46.763Z,69.41
2022-08-28T02:13:14.156Z,69.04
2022-08-28T02:15:42.894Z,69.17
2022-08-28T02:18:10.837Z,69.62
2022-08-28T02:20:38.451Z,68.77
2022-08-28T02:23:06.271Z,69.68
2022-08-28T02:25:34.052Z,69.26
2022-08-28T02:28:01.540Z,70.88
2022-08-28T02:30:28.959Z,72.25
2022-08-28T02:32:56.824Z,71.22
2022-08-28T02:35:24.741Z,68.00
2022-08-28T02:37:52.435Z,68.69
2022-08-28T02:40:24.221Z,67.90
2022-08-28T02:42:52.175Z,69.72
2022-08-28T02:45:20.825Z,67.93
2022-08-28T02:47:50.939Z,69.25
2022-08-28T02:50:19.876Z,71.00
2022-08-28T02:52:47.634Z,73.77
2022-08-28T02:55:17.446Z,75.00
2022-08-28T02:57:46.679Z,73.58
2022-08-28T03:00:19.944Z,73.51
2022-08-28T03:02:48.409Z,69.81
2022-08-28T03:05:19.352Z,69.07
2022-08-28T03:07:47.311Z,68.28
2022-08-28T03:10:15.494Z,74.41
2022-08-28T03:12:43.060Z,76.47
2022-08-28T03:15:10.937Z,78.40
2022-08-28T03:17:38.799Z,78.25
2022-08-28T03:20:09.294Z,76.83
2022-08-28T03:22:55.691Z,75.87
2022-08-28T03:25:24.788Z,73.15
2022-08-28T03:27:52.889Z,73.71
2022-08-28T03:30:21.340Z,71.65
2022-08-28T03:32:49.632Z,70.61
2022-08-28T03:35:17.238Z,69.48
2022-08-28T03:37:44.661Z,70.67
2022-08-28T03:40:13.791Z,67.70
2022-08-28T03:42:41.380Z,65.96
2022-08-28T03:45:10.391Z,67.03
2022-08-28T03:47:39.808Z,69.55
2022-08-28T03:50:08.617Z,71.92
2022-08-28T03:52:40.409Z,72.93
2022-08-28T03:55:10.738Z,68.38
2022-08-28T03:57:38.802Z,67.11
2022-08-28T04:00:09.398Z,68.18
2022-08-28T04:02:43.422Z,66.28
2022-08-28T04:05:11.835Z,63.14
2022-08-28T04:07:40.318Z,63.90
2022-08-28T04:10:08.587Z,68.73
2022-08-28T04:12:37.096Z,67.96
2022-08-28T04:15:06.818Z,64.61
2022-08-28T04:17:35.085Z,65.18
2022-08-28T04:20:03.041Z,63.68
2022-08-28T04:22:30.645Z,64.08
2022-08-28T04:24:58.191Z,64.63
2022-08-28T04:27:26.086Z,64.58
2022-08-28T04:29:53.478Z,61.11
2022-08-28T04:32:21.920Z,61.05
2022-08-28T04:34:50.595Z,63.37
2022-08-28T04:37:18.759Z,67.82
2022-08-28T04:39:46.338Z,68.04
2022-08-28T04:42:14.976Z,67.79
2022-08-28T04:44:42.397Z,68.78
2022-08-28T04:47:09.951Z,65.74
2022-08-28T04:49:38.079Z,66.85
2022-08-28T04:52:05.678Z,69.36
2022-08-28T04:54:34.065Z,68.32
2022-08-28T04:57:02.787Z,67.90
2022-08-28T04:59:34.338Z,64.52
2022-08-28T05:02:03.233Z,65.45
2022-08-28T05:04:31.012Z,65.91
2022-08-28T05:06:58.394Z,67.17
2022-08-28T05:09:26.096Z,66.98
2022-08-28T05:11:53.531Z,64.23
2022-08-28T05:14:21.845Z,60.75
2022-08-28T05:16:52.943Z,61.70
2022-08-28T05:19:21.269Z,64.24
2022-08-28T05:21:48.826Z,68.28
2022-08-28T05:24:16.592Z,67.73
2022-08-28T05:26:44.015Z,64.68
2022-08-28T05:29:16.986Z,62.47
2022-08-28T05:31:44.942Z,62.21
2022-08-28T05:34:15.365Z,61.65
2022-08-28T05:36:43.176Z,61.20
2022-08-28T05:39:11.610Z,62.15
2022-08-28T05:41:41.426Z,61.57
2022-08-28T05:44:11.293Z,61.85
2022-08-28T05:46:41.481Z,59.83
2022-08-28T05:49:10.368Z,60.19
2022-08-28T05:51:40.966Z,61.07
2022-08-28T05:54:08.866Z,60.60
2022-08-28T05:56:38.625Z,59.90
2022-08-28T05:59:07.543Z,59.12
2022-08-28T06:01:39.779Z,61.31
2022-08-28T06:04:11.304Z,61.07
2022-08-28T06:06:41.990Z,58.30
2022-08-28T06:09:19.375Z,58.08
2022-08-28T06:11:47.426Z,58.13
2022-08-28T06:14:18.627Z,56.62
2022-08-28T06:16:49.044Z,55.76
2022-08-28T06:19:17.671Z,55.88
2022-08-28T06:21:47.004Z,55.53
2022-08-28T06:24:14.522Z,54.78
2022-08-28T06:26:43.414Z,54.02
2022-08-28T06:29:13.729Z,53.74
2022-08-28T06:31:41.479Z,53.21
2022-08-28T06:34:09.670Z,51.93
2022-08-28T06:36:41.792Z,51.95
2022-08-28T06:39:11.386Z,52.04
2022-08-28T06:41:43.002Z,50.89
2022-08-28T06:44:13.547Z,51.17
2022-08-28T06:46:42.027Z,49.75
2022-08-28T06:49:09.542Z,49.94
2022-08-28T06:51:37.226Z,49.70
2022-08-28T06:54:05.446Z,50.23
2022-08-28T06:56:33.181Z,52.03
2022-08-28T06:59:01.057Z,52.42
2022-08-28T07:01:34.866Z,50.19
2022-08-28T07:04:07.021Z,51.21
2022-08-28T07:06:37.744Z,51.44
2022-08-28T07:09:07.829Z,51.92
2022-08-28T07:11:36.183Z,50.74
2022-08-28T07:14:04.451Z,53.51
2022-08-28T07:16:38.024Z,53.10
2022-08-28T07:19:11.196Z,53.04
2022-08-28T07:21:42.029Z,52.25
2022-08-28T07:24:12.178Z,53.93
2022-08-28T07:26:41.147Z,53.73
2022-08-28T07:29:10.574Z,56.50
2022-08-28T07:31:44.936Z,55.03
2022-08-28T07:34:13.673Z,54.84
2022-08-28T07:36:42.320Z,56.66
2022-08-28T07:39:11.600Z,57.31
2022-08-28T07:41:42.892Z,57.22
2022-08-28T07:44:30.974Z,59.15
2022-08-28T07:47:02.256Z,53.81
2022-08-28T07:49:31.441Z,53.50
2022-08-28T07:51:59.571Z,53.42
2022-08-28T07:54:27.162Z,49.23
2022-08-28T07:56:55.368Z,49.78
2022-08-28T07:59:23.073Z,50.02
2022-08-28T08:01:51.611Z,54.22
2022-08-28T08:04:20.647Z,52.74
2022-08-28T08:06:48.684Z,52.55
2022-08-28T08:09:18.440Z,51.49
2022-08-28T08:11:47.248Z,50.17
2022-08-28T08:14:17.157Z,46.60
2022-08-28T08:16:46.046Z,46.16
2022-08-28T08:19:15.495Z,47.89
2022-08-28T08:21:46.822Z,46.51
2022-08-28T08:24:20.761Z,42.21
2022-08-28T08:26:50.104Z,41.21
2022-08-28T08:29:29.485Z,39.61
2022-08-28T08:32:02.711Z,41.51
2022-08-28T08:34:30.976Z,38.42
2022-08-28T08:36:58.690Z,37.29
2022-08-28T08:39:26.413Z,40.63
2022-08-28T08:41:58.244Z,39.02
2022-08-28T08:44:41.681Z,41.17
2022-08-28T08:47:16.230Z,45.32
2022-08-28T08:50:14.512Z,41.32
2022-08-28T08:52:54.469Z,39.46
2022-08-28T08:55:24.962Z,43.84
2022-08-28T08:58:16.521Z,46.46
2022-08-28T09:00:52.656Z,42.37
2022-08-28T09:03:26.439Z,41.61
2022-08-28T09:06:05.367Z,42.58
2022-08-28T09:08:40.638Z,44.93
2022-08-28T09:11:32.009Z,42.79
2022-08-28T09:14:12.731Z,46.01
2022-08-28T09:16:43.082Z,47.13
2022-08-28T09:19:12.947Z,43.74
2022-08-28T09:21:43.105Z,44.01
2022-08-28T09:24:21.664Z,44.74
2022-08-28T09:26:55.351Z,41.01
2022-08-28T09:29:32.944Z,41.28
2022-08-28T09:32:18.335Z,40.90
2022-08-28T09:35:24.887Z,40.94
2022-08-28T09:37:52.731Z,37.94
2022-08-28T09:40:23.043Z,36.74
2022-08-28T09:43:30.576Z,37.29
2022-08-28T09:46:07.191Z,36.69
2022-08-28T09:48:43.381Z,38.86
2022-08-28T09:51:13.937Z,39.44
2022-08-28T09:53:56.576Z,40.47
2022-08-28T09:56:32.753Z,40.67
2022-08-28T09:59:08.172Z,40.70
2022-08-28T10:01:47.994Z,41.79
2022-08-28T10:04:15.914Z,40.43
2022-08-28T10:06:57.381Z,38.59
2022-08-28T10:09:31.592Z,37.75
2022-08-28T10:12:06.658Z,38.35
2022-08-28T10:14:55.595Z,38.20
2022-08-28T10:17:32.530Z,34.64
2022-08-28T10:20:10.323Z,36.24
2022-08-28T10:22:52.505Z,34.88
2022-08-28T10:25:30.076Z,36.58
2022-08-28T10:28:35.879Z,35.69
2022-08-28T10:31:20.630Z,35.37
2022-08-28T10:33:51.750Z,36.06
2022-08-28T10:36:33.292Z,34.61
2022-08-28T10:39:24.380Z,35.44
2022-08-28T10:42:00.827Z,35.64
2022-08-28T10:44:55.217Z,33.55
2022-08-28T10:47:24.230Z,34.87
2022-08-28T10:49:55.432Z,34.09
2022-08-28T10:52:39.043Z,33.19
2022-08-28T10:55:34.602Z,33.70
2022-08-28T10:58:23.851Z,33.02
2022-08-28T11:00:55.840Z,33.60
2022-08-28T11:03:41.032Z,31.77
2022-08-28T11:06:35.371Z,33.30
2022-08-28T11:09:24.825Z,34.42
2022-08-28T11:12:02.515Z,33.47
2022-08-28T11:14:48.017Z,33.85
2022-08-28T11:17:21.852Z,34.71
2022-08-28T11:20:01.686Z,32.59
2022-08-28T11:22:35.155Z,33.21
2022-08-28T11:25:17.012Z,34.72
2022-08-28T11:28:27.625Z,35.30
2022-08-28T11:30:58.252Z,34.35
2022-08-28T11:33:44.890Z,34.54
2022-08-28T11:36:32.823Z,34.78
2022-08-28T11:39:26.485Z,33.16
2022-08-28T11:42:09.381Z,33.01
2022-08-28T11:44:44.900Z,32.37
2022-08-28T11:47:35.468Z,31.93
2022-08-28T11:50:24.991Z,31.90
2022-08-28T11:53:13.684Z,32.82
2022-08-28T11:55:59.587Z,34.61
2022-08-28T11:58:35.227Z,33.71
2022-08-28T12:01:09.055Z,32.97
2022-08-28T12:03:40.803Z,32.94
2022-08-28T12:06:09.030Z,34.26
2022-08-28T12:08:48.800Z,32.95
2022-08-28T12:11:49.112Z,33.78
2022-08-28T12:14:25.810Z,34.33
2022-08-28T12:16:59.528Z,32.91
2022-08-28T12:19:34.017Z,35.09
2022-08-28T12:22:05.741Z,34.30
2022-08-28T12:24:34.158Z,36.17
2022-08-28T12:27:04.457Z,36.34
2022-08-28T12:29:35.405Z,35.98
2022-08-28T12:32:24.712Z,37.56
2022-08-28T12:34:58.177Z,38.51
2022-08-28T12:37:25.881Z,37.96
2022-08-28T12:39:55.536Z,37.67
2022-08-28T12:42:30.563Z,38.60
2022-08-28T12:45:06.928Z,36.52
2022-08-28T12:47:37.205Z,38.06
2022-08-28T12:50:26.658Z,37.18
2022-08-28T12:52:56.725Z,38.54
2022-08-28T12:55:24.829Z,37.80
2022-08-28T12:57:54.088Z,36.45
2022-08-28T13:00:27.829Z,39.28
2022-08-28T13:02:56.996Z,37.93
2022-08-28T13:05:32.846Z,39.39
2022-08-28T13:08:03.965Z,40.47
2022-08-28T13:10:35.594Z,41.38
2022-08-28T13:13:06.500Z,39.16
2022-08-28T13:15:54.612Z,39.15
2022-08-28T13:18:38.850Z,41.83
2022-08-28T13:21:33.858Z,40.93
2022-08-28T13:24:22.666Z,40.42
2022-08-28T13:27:00.777Z,40.29
2022-08-28T13:29:28.748Z,40.71
2022-08-28T13:32:17.912Z,41.32
2022-08-28T13:35:07.624Z,40.57
2022-08-28T13:37:56.290Z,42.04
2022-08-28T13:43:15.798Z,41.32
2022-08-28T13:45:45.864Z,40.44
2022-08-28T13:48:27.078Z,40.40
2022-08-28T13:51:03.151Z,39.45
2022-08-28T13:53:32.771Z,38.19
2022-08-28T13:56:00.621Z,41.15
2022-08-28T13:58:28.297Z,40.12
2022-08-28T14:00:55.784Z,40.38
2022-08-28T14:03:35.498Z,40.67
2022-08-28T14:06:21.029Z,42.14
2022-08-28T14:08:52.313Z,41.50
2022-08-28T14:11:19.735Z,43.14
2022-08-28T14:13:55.541Z,41.47
2022-08-28T14:16:25.142Z,42.26
2022-08-28T14:18:53.015Z,43.66
2022-08-28T14:21:21.766Z,42.07
2022-08-28T14:23:50.476Z,41.41
2022-08-28T14:26:19.025Z,40.13
2022-08-28T14:28:46.581Z,40.35
2022-08-28T14:31:16.779Z,40.21
2022-08-28T14:33:45.253Z,41.92
2022-08-28T14:36:22.161Z,42.75
2022-08-28T14:38:54.023Z,42.74
2022-08-28T14:41:23.725Z,43.36
2022-08-28T14:43:52.033Z,43.37
2022-08-28T14:46:21.189Z,40.74
2022-08-28T14:48:49.518Z,40.12
2022-08-28T14:51:18.272Z,41.03
2022-08-28T14:53:45.851Z,39.93
2022-08-28T14:56:13.434Z,39.88
2022-08-28T14:58:41.430Z,40.71
2022-08-28T15:01:09.402Z,43.73
2022-08-28T15:03:37.204Z,41.59
2022-08-28T15:06:09.807Z,44.40
2022-08-28T15:08:37.340Z,41.71
2022-08-28T15:11:10.005Z,41.88
2022-08-28T15:13:37.883Z,41.72
2022-08-28T15:16:15.533Z,41.89
2022-08-28T15:18:45.703Z,42.86
2022-08-28T15:21:19.625Z,43.40
2022-08-28T15:23:54.631Z,44.00
2022-08-28T15:26:23.857Z,43.71
2022-08-28T15:28:55.467Z,43.29
2022-08-28T15:31:24.937Z,44.66
2022-08-28T15:33:52.538Z,43.62
2022-08-28T15:36:20.315Z,43.14
2022-08-28T15:39:06.804Z,42.79
2022-08-28T15:41:37.045Z,43.14
2022-08-28T15:44:04.984Z,43.15
2022-08-28T15:46:34.591Z,44.00
2022-08-28T15:49:03.685Z,45.45
2022-08-28T15:51:35.958Z,45.35
2022-08-28T15:54:03.853Z,45.23
2022-08-28T15:56:31.651Z,44.15
2022-08-28T15:58:59.543Z,44.79
2022-08-28T16:01:27.331Z,44.86
2022-08-28T16:03:55.986Z,45.43
2022-08-28T16:06:23.917Z,45.31
2022-08-28T16:08:51.539Z,45.51
2022-08-28T16:11:22.430Z,45.41
2022-08-28T16:13:50.698Z,45.49
2022-08-28T16:16:18.543Z,44.77
2022-08-28T16:18:46.458Z,45.63
2022-08-28T16:21:14.430Z,45.66
2022-08-28T16:23:42.010Z,45.84
2022-08-28T16:26:10.984Z,45.33
2022-08-28T16:28:38.552Z,45.49
2022-08-28T16:31:07.562Z,45.63
2022-08-28T16:33:47.321Z,45.86
2022-08-28T16:36:15.686Z,45.75
2022-08-28T16:38:45.789Z,45.52
2022-08-28T16:41:16.893Z,45.73
2022-08-28T16:43:44.420Z,46.40
2022-08-28T16:46:15.755Z,45.89
2022-08-28T16:48:44.838Z,45.95
2022-08-28T16:51:12.521Z,47.29
2022-08-28T16:53:42.557Z,46.46
2022-08-28T16:56:12.033Z,46.50
2022-08-28T16:58:41.129Z,47.48
2022-08-28T17:01:10.739Z,47.08
2022-08-28T17:03:39.832Z,46.39
2022-08-28T17:06:12.923Z,46.37
2022-08-28T17:08:40.995Z,45.47
2022-08-28T17:11:09.063Z,46.40
2022-08-28T17:13:36.839Z,46.19
2022-08-28T17:16:05.142Z,46.43
2022-08-28T17:18:32.795Z,45.99
2022-08-28T17:21:19.232Z,46.31
2022-08-28T17:23:47.267Z,46.82
2022-08-28T17:26:15.419Z,47.15
2022-08-28T17:28:43.599Z,46.55
2022-08-28T17:31:12.111Z,46.61
2022-08-28T17:33:41.561Z,46.45
2022-08-28T17:36:17.118Z,47.05
2022-08-28T17:39:02.551Z,47.09
2022-08-28T17:41:30.567Z,46.77
2022-08-28T17:43:58.749Z,46.28
2022-08-28T17:46:26.982Z,46.80
2022-08-28T17:48:56.199Z,46.21
2022-08-28T17:51:42.607Z,46.66
2022-08-28T17:54:13.668Z,46.81
2022-08-28T17:56:42.121Z,48.20
2022-08-28T17:59:11.802Z,48.99
2022-08-28T18:01:41.071Z,47.87
2022-08-28T18:04:09.359Z,48.28
2022-08-28T18:06:37.990Z,47.41
2022-08-28T18:09:08.135Z,46.60
2022-08-28T18:11:36.846Z,47.63
2022-08-28T18:14:04.998Z,46.43
2022-08-28T18:16:34.193Z,47.22
2022-08-28T18:19:04.980Z,47.69
2022-08-28T18:21:33.311Z,47.28
2022-08-28T18:24:01.312Z,47.63
2022-08-28T18:26:29.654Z,48.99
2022-08-28T18:28:57.610Z,48.83
2022-08-28T18:31:25.358Z,47.83
2022-08-28T18:33:54.899Z,48.11
2022-08-28T18:36:23.288Z,47.74
2022-08-28T18:38:51.665Z,47.67
2022-08-28T18:41:20.771Z,48.73
2022-08-28T18:43:49.041Z,47.58
2022-08-28T18:46:16.893Z,47.05
2022-08-28T18:48:45.049Z,46.92
2022-08-28T18:51:13.402Z,49.04
2022-08-28T18:53:43.334Z,48.37
2022-08-28T18:56:12.644Z,47.62
2022-08-28T18:58:42.133Z,48.96
2022-08-28T19:01:10.488Z,47.56
2022-08-28T19:03:38.546Z,47.25
2022-08-28T19:06:06.933Z,48.08
2022-08-28T19:08:37.102Z,48.70
2022-08-28T19:11:10.276Z,49.04
2022-08-28T19:13:39.033Z,50.63
2022-08-28T19:16:07.764Z,51.22
2022-08-28T19:18:36.020Z,51.46
2022-08-28T19:21:06.398Z,51.70
2022-08-28T19:23:35.569Z,51.88
2022-08-28T19:26:03.560Z,52.48
2022-08-28T19:28:31.488Z,52.52
2022-08-28T19:30:59.797Z,53.78
2022-08-28T19:33:27.849Z,54.63
2022-08-28T19:35:55.668Z,55.00
2022-08-28T19:38:24.047Z,55.42
2022-08-28T19:40:51.977Z,55.50
2022-08-28T19:43:19.969Z,55.76
2022-08-28T19:45:48.543Z,55.47
2022-08-28T19:48:17.264Z,56.10
2022-08-28T19:50:46.088Z,56.78
2022-08-28T19:53:14.598Z,56.85
2022-08-28T19:55:42.544Z,57.23
2022-08-28T19:58:10.744Z,58.09
2022-08-28T20:00:38.494Z,58.30
2022-08-28T20:03:06.611Z,58.00
2022-08-28T20:05:34.898Z,58.38
2022-08-28T20:08:06.803Z,58.72
2022-08-28T20:10:34.772Z,58.97
2022-08-28T20:13:03.047Z,59.02
2022-08-28T20:15:31.342Z,59.85
2022-08-28T20:17:59.264Z,60.58
2022-08-28T20:20:29.990Z,60.79
2022-08-28T20:22:58.041Z,62.21
2022-08-28T20:25:26.820Z,62.03
2022-08-28T20:27:57.299Z,62.75
2022-08-28T20:30:27.989Z,61.84
2022-08-28T20:32:56.000Z,60.95
2022-08-28T20:35:24.591Z,61.54
2022-08-28T20:37:55.870Z,62.07
2022-08-28T20:40:24.421Z,61.17
2022-08-28T20:42:52.469Z,62.17
2022-08-28T20:45:20.386Z,63.51
2022-08-28T20:47:48.113Z,65.27
2022-08-28T20:50:15.774Z,66.24
2022-08-28T20:52:43.436Z,64.98
2022-08-28T20:55:13.063Z,67.95
2022-08-28T20:57:40.799Z,66.91
2022-08-28T21:00:10.121Z,67.08
2022-08-28T21:02:37.951Z,68.75
2022-08-28T21:05:07.332Z,70.66
2022-08-28T21:07:35.489Z,68.61
2022-08-28T21:10:07.728Z,65.30
2022-08-28T21:12:37.252Z,69.21
2022-08-28T21:15:06.856Z,64.77
2022-08-28T21:17:34.618Z,63.86
2022-08-28T21:20:06.505Z,63.96
2022-08-28T21:22:35.347Z,63.74
2022-08-28T21:25:08.458Z,65.17
2022-08-28T21:27:36.859Z,63.62
2022-08-28T21:30:06.374Z,64.56
2022-08-28T21:32:34.715Z,65.04
2022-08-28T21:35:04.323Z,63.54
2022-08-28T21:37:32.071Z,64.42
2022-08-28T21:40:00.735Z,65.81
2022-08-28T21:42:28.375Z,65.39
2022-08-28T21:44:56.391Z,65.31
2022-08-28T21:47:24.834Z,69.42
2022-08-28T21:49:54.369Z,71.33
2022-08-28T21:52:24.603Z,68.83
2022-08-28T21:54:56.943Z,67.94
2022-08-28T21:57:24.661Z,72.33
2022-08-28T21:59:52.100Z,69.15
2022-08-28T22:02:20.759Z,67.60
2022-08-28T22:04:49.095Z,67.18
2022-08-28T22:07:18.928Z,66.49
2022-08-28T22:09:46.467Z,66.46
2022-08-28T22:12:14.194Z,65.82
2022-08-28T22:14:42.281Z,67.30
2022-08-28T22:17:11.921Z,66.37
2022-08-28T22:19:40.234Z,67.70
2022-08-28T22:22:27.132Z,68.41
2022-08-28T22:24:55.246Z,67.96
2022-08-28T22:27:22.976Z,66.61
2022-08-28T22:29:51.069Z,66.11
2022-08-28T22:32:19.038Z,65.70
2022-08-28T22:34:46.521Z,64.99
2022-08-28T22:37:14.044Z,64.94
2022-08-28T22:39:42.558Z,66.35
2022-08-28T22:42:10.614Z,64.64
2022-08-28T22:44:38.580Z,65.30
2022-08-28T22:47:07.307Z,65.72
2022-08-28T22:49:39.426Z,67.29
2022-08-28T22:52:10.395Z,68.11
2022-08-28T22:54:37.926Z,71.25
2022-08-28T22:57:05.936Z,72.74
2022-08-28T22:59:34.388Z,70.66
2022-08-28T23:02:03.795Z,69.95
2022-08-28T23:04:31.394Z,73.93
2022-08-28T23:06:59.254Z,72.70
2022-08-28T23:09:27.556Z,73.50
2022-08-28T23:11:54.969Z,73.15
2022-08-28T23:14:28.263Z,75.88
2022-08-28T23:16:56.266Z,73.59
2022-08-28T23:19:24.503Z,72.43
2022-08-28T23:21:52.458Z,70.88
2022-08-28T23:24:19.891Z,71.73
2022-08-28T23:26:47.302Z,71.62
2022-08-28T23:29:15.124Z,71.52
2022-08-28T23:31:43.162Z,71.42
2022-08-28T23:34:11.034Z,70.87
2022-08-28T23:36:39.372Z,71.11
2022-08-28T23:39:10.443Z,71.50
2022-08-28T23:41:37.844Z,71.18
2022-08-28T23:44:08.693Z,71.30
2022-08-28T23:46:37.036Z,71.80
2022-08-28T23:49:10.533Z,71.72
2022-08-28T23:51:38.296Z,71.91
2022-08-28T23:54:06.555Z,73.51
2022-08-28T23:56:34.592Z,74.30
2022-08-28T23:59:02.405Z,75.26
